createdAt,value
2022-09-02T00:02:42.707Z,0.00
2022-09-02T00:08:14.660Z,0.00
2022-09-02T00:13:46.616Z,0.00
2022-09-02T00:19:18.670Z,0.00
2022-09-02T00:24:50.551Z,0.00
2022-09-02T00:30:22.261Z,0.00
2022-09-02T00:35:54.201Z,0.00
2022-09-02T00:41:25.985Z,0.00
2022-09-02T00:46:57.867Z,0.00
2022-09-02T00:52:29.699Z,0.00
2022-09-02T00:58:01.338Z,0.00
2022-09-02T01:03:32.864Z,0.00
2022-09-02T01:09:04.733Z,1.00
2022-09-02T01:14:36.284Z,0.00
2022-09-02T01:25:39.776Z,0.00
2022-09-02T01:31:11.487Z,0.00
2022-09-02T01:36:43.096Z,0.00
2022-09-02T01:42:14.851Z,0.00
2022-09-02T01:47:46.818Z,0.00
2022-09-02T01:53:19.174Z,0.00
2022-09-02T01:58:51.314Z,0.00
2022-09-02T02:04:22.728Z,0.00
2022-09-02T02:09:54.912Z,0.00
2022-09-02T02:17:49.259Z,0.00
2022-09-02T02:23:21.145Z,1.00
2022-09-02T02:28:52.780Z,0.00
2022-09-02T02:34:24.607Z,0.00
2022-09-02T02:39:56.403Z,0.00
2022-09-02T02:45:28.311Z,0.00
2022-09-02T02:56:31.882Z,0.00
2022-09-02T03:02:03.644Z,0.00
2022-09-02T03:07:35.093Z,0.00
2022-09-02T03:13:07.072Z,1.00
2022-09-02T03:18:38.812Z,0.00
2022-09-02T03:24:10.440Z,0.00
2022-09-02T03:29:42.078Z,0.00
2022-09-02T03:35:13.832Z,1.00
2022-09-02T03:40:45.711Z,0.00
2022-09-02T03:46:17.320Z,2.00
2022-09-02T03:51:49.528Z,4.00
2022-09-02T03:57:21.564Z,8.00
2022-09-02T04:02:53.547Z,19.00
2022-09-02T04:08:25.336Z,53.00
2022-09-02T04:13:56.939Z,148.00
2022-09-02T04:19:28.619Z,370.00
2022-09-02T04:25:00.432Z,698.00
2022-09-02T04:30:32.127Z,970.00
2022-09-02T04:36:03.658Z,1463.00
2022-09-02T04:47:09.135Z,2970.00
2022-09-02T04:52:41.103Z,3676.00
2022-09-02T04:58:12.942Z,5959.00
2022-09-02T05:03:44.817Z,33071.00
2022-09-02T05:09:16.505Z,37889.00
2022-09-02T05:14:48.272Z,37889.00
2022-09-02T05:20:20.129Z,37889.00
2022-09-02T05:25:52.082Z,37889.00
2022-09-02T05:31:23.759Z,37889.00
2022-09-02T05:36:55.649Z,37889.00
2022-09-02T05:44:47.588Z,37889.00
2022-09-02T05:55:48.796Z,37889.00
2022-09-02T06:01:20.668Z,37889.00
2022-09-02T06:06:52.371Z,37889.00
2022-09-02T06:17:53.767Z,37889.00
2022-09-02T06:23:25.316Z,37889.00
2022-09-02T06:28:57.241Z,37889.00
2022-09-02T06:34:28.931Z,37889.00
2022-09-02T06:40:00.633Z,37889.00
2022-09-02T06:45:32.759Z,37889.00
2022-09-02T06:51:04.602Z,37889.00
2022-09-02T06:56:36.225Z,37889.00
2022-09-02T07:02:08.303Z,37889.00
2022-09-02T07:07:39.565Z,37889.00
2022-09-02T07:13:11.736Z,37889.00
2022-09-02T07:18:43.374Z,37889.00
2022-09-02T07:24:15.194Z,37889.00
2022-09-02T07:29:47.202Z,37889.00
2022-09-02T07:43:07.655Z,37889.00
2022-09-02T07:48:39.564Z,37889.00
2022-09-02T07:54:11.422Z,37889.00
2022-09-02T08:02:03.288Z,37889.00
2022-09-02T08:07:35.216Z,37889.00
2022-09-02T08:13:06.943Z,37889.00
2022-09-02T08:24:08.548Z,37889.00
2022-09-02T08:29:40.136Z,37889.00
2022-09-02T08:35:11.890Z,37889.00
2022-09-02T08:40:43.796Z,37889.00
2022-09-02T08:46:15.542Z,37889.00
2022-09-02T08:51:47.211Z,37889.00
2022-09-02T08:57:19.045Z,37889.00
2022-09-02T09:02:51.039Z,14675.00
2022-09-02T09:08:22.704Z,13943.00
2022-09-02T09:13:54.347Z,13911.00
2022-09-02T09:24:55.949Z,13134.00
2022-09-02T09:30:27.812Z,12965.00
2022-09-02T09:35:59.499Z,12683.00
2022-09-02T09:47:01.281Z,12406.00
2022-09-02T09:52:33.122Z,12207.00
2022-09-02T09:58:04.764Z,12112.00
2022-09-02T10:03:36.475Z,11974.00
2022-09-02T10:09:08.174Z,11822.00
2022-09-02T10:14:40.123Z,11633.00
2022-09-02T10:20:11.953Z,11679.00
2022-09-02T10:27:56.325Z,11458.00
2022-09-02T10:38:57.667Z,11381.00
2022-09-02T10:44:29.525Z,11226.00
2022-09-02T10:55:32.097Z,11174.00
2022-09-02T11:01:04.059Z,11067.00
2022-09-02T11:06:51.809Z,11022.00
2022-09-02T11:17:39.495Z,10926.00
2022-09-02T11:28:42.912Z,10804.00
2022-09-02T11:39:54.488Z,10712.00
2022-09-02T11:45:18.459Z,10694.00
2022-09-02T11:50:50.263Z,10595.00
2022-09-02T11:56:22.039Z,10509.00
2022-09-02T12:01:53.701Z,10524.00
2022-09-02T12:07:26.777Z,10452.00
2022-09-02T12:12:57.163Z,10327.00
2022-09-02T12:18:28.901Z,10340.00
2022-09-02T12:24:00.990Z,10246.00
2022-09-02T12:29:32.832Z,10195.00
2022-09-02T12:35:05.287Z,10163.00
2022-09-02T12:40:36.550Z,10149.00
2022-09-02T12:46:08.804Z,10147.00
2022-09-02T12:51:40.545Z,10094.00
2022-09-02T12:57:12.688Z,10086.00
2022-09-02T13:08:15.356Z,10046.00
2022-09-02T13:13:47.388Z,9945.00
2022-09-02T13:19:20.805Z,9966.00
2022-09-02T13:24:52.470Z,9911.00
2022-09-02T13:30:24.215Z,9786.00
2022-09-02T13:41:27.710Z,9694.00
2022-09-02T13:46:59.593Z,9541.00
2022-09-02T13:53:34.311Z,9401.00
2022-09-02T14:00:23.732Z,9354.00
2022-09-02T14:05:55.580Z,9381.00
2022-09-02T14:11:27.244Z,9189.00
2022-09-02T14:16:59.802Z,9252.00
2022-09-02T14:22:31.355Z,9099.00
2022-09-02T14:28:02.945Z,9019.00
2022-09-02T14:33:34.658Z,8952.00
2022-09-02T14:39:06.581Z,8898.00
2022-09-02T14:44:38.061Z,8775.00
2022-09-02T14:50:09.959Z,8730.00
2022-09-02T14:55:41.647Z,8608.00
2022-09-02T15:01:13.659Z,8575.00
2022-09-02T15:06:45.489Z,8537.00
2022-09-02T15:12:20.124Z,8405.00
2022-09-02T15:17:48.666Z,8372.00
2022-09-02T15:23:20.718Z,8293.00
2022-09-02T15:34:24.331Z,8172.00
2022-09-02T15:39:56.277Z,8005.00
2022-09-02T15:45:27.947Z,7872.00
2022-09-02T15:50:59.808Z,7713.00
2022-09-02T15:56:31.373Z,7535.00
2022-09-02T16:02:03.380Z,7305.00
2022-09-02T16:07:35.136Z,6923.00
2022-09-02T16:13:06.733Z,6694.00
2022-09-02T16:18:38.971Z,6179.00
2022-09-02T16:24:10.392Z,6032.00
2022-09-02T16:29:42.166Z,5466.00
2022-09-02T16:35:13.986Z,5212.00
2022-09-02T16:40:45.667Z,5235.00
2022-09-02T16:46:18.204Z,4748.00
2022-09-02T16:51:50.427Z,3964.00
2022-09-02T16:57:22.164Z,3421.00
2022-09-02T17:02:54.312Z,3296.00
2022-09-02T17:08:25.714Z,3150.00
2022-09-02T17:13:57.803Z,2678.00
2022-09-02T17:19:32.320Z,1818.00
2022-09-02T17:30:32.625Z,1318.00
2022-09-02T17:41:33.722Z,765.00
2022-09-02T17:52:37.282Z,335.00
2022-09-02T17:58:09.328Z,201.00
2022-09-02T18:03:40.965Z,114.00
2022-09-02T18:20:11.592Z,9.00
2022-09-02T18:25:43.394Z,3.00
2022-09-02T18:31:15.162Z,2.00
2022-09-02T18:36:46.633Z,2.00
2022-09-02T18:42:18.286Z,1.00
2022-09-02T18:47:50.097Z,0.00
2022-09-02T18:53:21.378Z,1.00
2022-09-02T19:04:27.388Z,3.00
2022-09-02T19:09:55.808Z,3.00
2022-09-02T19:15:27.216Z,3.00
2022-09-02T19:26:28.166Z,3.00
2022-09-02T19:32:05.899Z,3.00
2022-09-02T19:37:44.212Z,0.00
2022-09-02T19:43:08.994Z,0.00
2022-09-02T19:48:40.693Z,1.00
2022-09-02T19:54:12.623Z,0.00
2022-09-02T19:59:44.427Z,0.00
2022-09-02T20:05:16.248Z,0.00
2022-09-02T20:16:17.738Z,1.00
2022-09-02T20:21:49.328Z,1.00
2022-09-02T20:32:51.097Z,0.00
2022-09-02T20:38:23.531Z,1.00
2022-09-02T20:43:56.067Z,1.00
2022-09-02T20:49:28.198Z,1.00
2022-09-02T20:57:20.593Z,0.00
2022-09-02T21:02:52.530Z,0.00
2022-09-02T21:08:24.398Z,1.00
2022-09-02T21:13:56.382Z,0.00
2022-09-02T21:19:27.821Z,1.00
2022-09-02T21:24:59.660Z,0.00
2022-09-02T21:30:31.605Z,0.00
2022-09-02T21:36:06.850Z,1.00
2022-09-02T21:41:38.434Z,0.00
2022-09-02T21:47:10.381Z,0.00
2022-09-02T21:52:42.267Z,1.00
2022-09-02T21:58:14.017Z,1.00
2022-09-02T22:03:45.763Z,0.00
2022-09-02T22:09:17.893Z,0.00
2022-09-02T22:22:39.212Z,0.00
2022-09-02T22:28:10.591Z,0.00
2022-09-02T22:39:16.721Z,1.00
2022-09-02T22:50:13.191Z,0.00
2022-09-02T22:55:45.267Z,1.00
2022-09-02T23:01:17.058Z,0.00
2022-09-02T23:06:48.629Z,0.00
2022-09-02T23:12:20.754Z,1.00
2022-09-02T23:17:52.319Z,0.00
2022-09-02T23:23:24.336Z,0.00
2022-09-02T23:28:56.168Z,0.00
2022-09-02T23:34:27.645Z,0.00
2022-09-02T23:39:59.527Z,1.00
2022-09-02T23:45:31.460Z,0.00
2022-09-02T23:51:03.380Z,0.00
2022-09-02T23:56:34.854Z,0.00
